Time;durP1;ratioP1;P1;durP2;ratioP2;P2;SDS_P1;SDS_P2;PMS_P1;PMS_P2;Temp;Humidity;BMP_temperature;BMP_pressure;BME280_temperature;BME280_humidity;BME280_pressure;Samples;Min_cycle;Max_cycle;Signal;HPM_P1;HPM_P2
2024/03/05 00:00:55;;;;;;;9.85;2.63;;;8.90;67.30;;;;;;4960754;28;20089;-82
2024/03/05 00:03:40;;;;;;;6.47;2.15;;;8.80;67.20;;;;;;4976500;28;20418;-82
2024/03/05 00:06:24;;;;;;;6.07;2.28;;;8.80;67.20;;;;;;4981673;28;20053;-83
2024/03/05 00:09:09;;;;;;;5.30;2.80;;;8.70;67.10;;;;;;4959985;28;20429;-81
2024/03/05 00:11:53;;;;;;;5.68;2.15;;;8.70;67.10;;;;;;4984008;28;20477;-81
2024/03/05 00:14:38;;;;;;;5.93;2.22;;;8.60;67.00;;;;;;4981921;28;20061;-82
2024/03/05 00:17:26;;;;;;;7.53;2.33;;;8.50;66.90;;;;;;4977516;28;20107;-81
2024/03/05 00:20:18;;;;;;;4.53;1.75;;;8.50;67.00;;;;;;4978028;28;20046;-80
2024/03/05 00:23:02;;;;;;;3.38;1.55;;;8.40;66.70;;;;;;4981621;28;20110;-80
2024/03/05 00:25:47;;;;;;;10.38;2.83;;;8.40;66.80;;;;;;4976705;28;20401;-80
2024/03/05 00:28:35;;;;;;;4.90;2.35;;;8.40;66.80;;;;;;4995521;28;20041;-83
2024/03/05 00:31:20;;;;;;;7.72;1.90;;;8.30;66.60;;;;;;4977615;28;20081;-83
2024/03/05 00:34:04;;;;;;;7.00;2.60;;;8.30;66.70;;;;;;4979932;28;20060;-82
2024/03/05 00:36:49;;;;;;;6.60;2.20;;;8.30;66.70;;;;;;4982264;28;20108;-82
2024/03/05 00:39:33;;;;;;;6.22;1.95;;;8.30;66.70;;;;;;4983880;28;20045;-83
2024/03/05 00:42:18;;;;;;;5.07;1.88;;;8.20;66.50;;;;;;4982027;28;20037;-84
2024/03/05 00:45:02;;;;;;;6.57;2.92;;;8.20;66.50;;;;;;4967032;28;20126;-83
2024/03/05 00:47:47;;;;;;;5.90;1.90;;;8.10;66.40;;;;;;4979494;28;20046;-85
2024/03/05 00:50:32;;;;;;;5.95;2.25;;;8.10;66.40;;;;;;4979364;28;20096;-84
2024/03/05 00:53:17;;;;;;;5.55;1.95;;;8.00;66.30;;;;;;4973151;28;20053;-81
2024/03/05 00:56:02;;;;;;;5.30;2.25;;;8.00;66.30;;;;;;4978551;28;20045;-83
2024/03/05 00:58:47;;;;;;;5.97;1.67;;;8.00;66.40;;;;;;4981448;28;20096;-83
2024/03/05 01:01:33;;;;;;;7.65;2.20;;;8.00;66.40;;;;;;4979547;28;20774;-81
2024/03/05 01:04:18;;;;;;;8.05;2.10;;;7.90;66.30;;;;;;4983029;28;20042;-81
2024/03/05 01:07:03;;;;;;;5.15;1.52;;;7.90;66.30;;;;;;4976224;28;20445;-82
2024/03/05 01:09:50;;;;;;;5.38;1.98;;;7.80;66.20;;;;;;4976395;28;20426;-82
2024/03/05 01:12:34;;;;;;;7.93;2.05;;;7.80;66.20;;;;;;4978625;28;20065;-82
2024/03/05 01:15:20;;;;;;;4.88;1.75;;;7.70;66.00;;;;;;4975352;28;20553;-82
2024/03/05 01:18:04;;;;;;;3.20;1.45;;;7.70;66.10;;;;;;4978620;28;20623;-81
2024/03/05 01:20:49;;;;;;;5.07;2.40;;;7.70;66.10;;;;;;4977422;28;20094;-82
2024/03/05 01:23:33;;;;;;;6.00;1.50;;;7.60;66.00;;;;;;4976982;28;20069;-82
2024/03/05 01:26:18;;;;;;;5.53;2.20;;;7.60;66.00;;;;;;4975190;28;20038;-82
2024/03/05 01:29:02;;;;;;;5.18;1.77;;;7.60;66.00;;;;;;4972632;28;20081;-82
2024/03/05 01:31:46;;;;;;;6.45;1.98;;;7.60;66.30;;;;;;4978448;28;20117;-81
2024/03/05 01:34:32;;;;;;;3.42;1.73;;;7.50;65.80;;;;;;4974693;28;20418;-82
2024/03/05 01:37:17;;;;;;;5.32;1.80;;;7.60;66.10;;;;;;4979123;28;20109;-83
2024/03/05 01:40:03;;;;;;;6.20;1.45;;;7.50;65.80;;;;;;4980572;28;20077;-82
2024/03/05 01:42:48;;;;;;;5.15;1.80;;;7.40;65.60;;;;;;4974600;28;20568;-82
2024/03/05 01:45:33;;;;;;;7.15;1.80;;;7.40;65.70;;;;;;4974370;28;20446;-81
2024/03/05 01:48:18;;;;;;;4.32;1.60;;;7.40;65.70;;;;;;4980292;28;20041;-81
2024/03/05 01:51:03;;;;;;;5.32;2.10;;;7.40;65.70;;;;;;4978092;28;20407;-82
2024/03/05 01:53:47;;;;;;;5.10;1.20;;;7.30;65.60;;;;;;4974592;28;20053;-82
2024/03/05 01:56:32;;;;;;;4.68;1.33;;;7.30;65.60;;;;;;4976228;28;20044;-81
2024/03/05 01:59:18;;;;;;;5.65;1.90;;;7.20;65.50;;;;;;4982533;28;20041;-82
2024/03/05 02:02:03;;;;;;;4.20;2.03;;;7.20;65.60;;;;;;4978754;28;20041;-82
2024/03/05 02:04:47;;;;;;;3.80;1.98;;;7.20;65.60;;;;;;4980174;28;20449;-81
2024/03/05 02:07:32;;;;;;;2.83;1.20;;;7.10;65.40;;;;;;4981843;28;20105;-81
2024/03/05 02:10:17;;;;;;;5.15;1.70;;;7.10;65.40;;;;;;4975654;28;20069;-80
2024/03/05 02:13:02;;;;;;;4.68;1.30;;;7.10;65.50;;;;;;4972725;28;20046;-80
2024/03/05 02:15:49;;;;;;;3.67;1.33;;;7.00;65.40;;;;;;4976229;28;20081;-81
2024/03/05 02:18:33;;;;;;;4.57;2.00;;;7.00;65.40;;;;;;4977167;28;20500;-81
2024/03/05 02:21:21;;;;;;;5.72;1.42;;;6.90;65.20;;;;;;4980800;28;20045;-81
2024/03/05 02:24:06;;;;;;;5.38;1.80;;;6.90;65.20;;;;;;4975524;28;20607;-81
2024/03/05 02:26:52;;;;;;;5.70;1.48;;;6.90;65.20;;;;;;4979968;28;20099;-82
2024/03/05 02:29:38;;;;;;;5.78;1.60;;;6.90;65.20;;;;;;4975523;28;20066;-80
2024/03/05 02:32:24;;;;;;;3.92;1.50;;;6.90;65.20;;;;;;4982871;28;20060;-80
2024/03/05 02:35:09;;;;;;;6.78;1.88;;;6.80;65.00;;;;;;4977591;28;20054;-80
2024/03/05 02:37:53;;;;;;;5.75;2.50;;;6.80;65.00;;;;;;4975685;28;20520;-81
2024/03/05 02:40:39;;;;;;;2.88;1.20;;;6.80;65.00;;;;;;4978997;28;20104;-80
2024/03/05 02:43:23;;;;;;;7.15;2.08;;;6.80;65.00;;;;;;4973558;28;20524;-80
2024/03/05 02:46:08;;;;;;;4.78;1.60;;;6.70;64.90;;;;;;4979298;28;20172;-81
2024/03/05 02:48:53;;;;;;;3.55;1.48;;;6.70;64.90;;;;;;4974258;28;20042;-79
2024/03/05 02:51:37;;;;;;;5.65;1.23;;;6.60;64.80;;;;;;4991676;28;20077;-79
2024/03/05 02:54:22;;;;;;;7.50;1.55;;;6.60;64.80;;;;;;4984642;28;20061;-79
2024/03/05 02:57:07;;;;;;;3.28;1.02;;;6.60;64.80;;;;;;4989550;28;20045;-79
2024/03/05 02:59:51;;;;;;;4.28;1.60;;;6.50;64.70;;;;;;4981214;28;20034;-79
2024/03/05 03:02:37;;;;;;;4.90;1.50;;;6.50;64.70;;;;;;4984292;28;20449;-79
2024/03/05 03:05:21;;;;;;;5.60;1.63;;;6.50;64.70;;;;;;4982439;28;20037;-79
2024/03/05 03:08:07;;;;;;;4.18;1.33;;;6.50;64.70;;;;;;4983140;28;20140;-79
2024/03/05 03:10:51;;;;;;;3.17;1.10;;;6.40;64.60;;;;;;4978548;28;20398;-80
2024/03/05 03:13:36;;;;;;;2.67;1.27;;;6.40;64.60;;;;;;4997677;28;20270;-80
2024/03/05 03:16:20;;;;;;;6.05;1.77;;;6.40;64.60;;;;;;4982904;28;20058;-80
2024/03/05 03:19:04;;;;;;;2.90;1.20;;;6.30;64.40;;;;;;4982338;28;20501;-80
2024/03/05 03:21:49;;;;;;;4.60;1.88;;;6.30;64.40;;;;;;4982180;28;20519;-82
2024/03/05 03:24:33;;;;;;;3.47;1.40;;;6.30;64.50;;;;;;4985494;28;20153;-82
2024/03/05 03:27:19;;;;;;;3.08;1.40;;;6.30;64.40;;;;;;4976698;28;20041;-83
2024/03/05 03:30:05;;;;;;;2.90;1.20;;;6.30;64.50;;;;;;4984855;28;20037;-82
2024/03/05 03:32:50;;;;;;;3.35;1.25;;;6.30;64.50;;;;;;4975373;28;20145;-83
2024/03/05 03:35:35;;;;;;;5.20;1.55;;;6.20;64.30;;;;;;4989624;28;20525;-83
2024/03/05 03:38:19;;;;;;;5.35;1.60;;;6.20;64.30;;;;;;4988718;28;20032;-80
2024/03/05 03:41:05;;;;;;;3.45;1.48;;;6.20;64.30;;;;;;4975756;28;20046;-80
2024/03/05 03:43:49;;;;;;;2.95;1.73;;;6.20;64.30;;;;;;4990103;28;20112;-80
2024/03/05 03:46:36;;;;;;;3.55;1.52;;;6.20;64.40;;;;;;4985835;28;20049;-79
2024/03/05 03:49:25;;;;;;;2.40;0.95;;;6.20;64.40;;;;;;4971892;28;20104;-81
2024/03/05 03:52:10;;;;;;;2.80;1.13;;;6.20;64.40;;;;;;4982249;28;20446;-83
2024/03/05 03:54:55;;;;;;;3.03;1.17;;;6.20;64.40;;;;;;4963984;28;20133;-83
2024/03/05 03:57:40;;;;;;;4.45;1.42;;;6.20;64.40;;;;;;4992828;28;20380;-83
2024/03/05 04:00:25;;;;;;;3.67;1.35;;;6.20;64.40;;;;;;4990115;28;20041;-84
2024/03/05 04:03:10;;;;;;;6.05;1.33;;;6.20;64.40;;;;;;4988963;28;20037;-83
2024/03/05 04:05:54;;;;;;;3.40;1.30;;;6.20;64.40;;;;;;4986029;28;20128;-83
2024/03/05 04:08:39;;;;;;;4.25;1.52;;;6.20;64.40;;;;;;4988475;28;20185;-83
2024/03/05 04:11:23;;;;;;;3.92;1.17;;;6.20;65.00;;;;;;4986870;28;20106;-83
2024/03/05 04:14:08;;;;;;;7.80;1.92;;;6.20;64.40;;;;;;4988858;28;20287;-84
2024/03/05 04:16:53;;;;;;;3.90;1.10;;;6.20;64.40;;;;;;4987426;28;20033;-84
2024/03/05 04:19:39;;;;;;;4.93;1.30;;;6.30;64.60;;;;;;4988520;28;20441;-84
2024/03/05 04:22:23;;;;;;;4.22;1.48;;;6.30;64.60;;;;;;4979156;28;20049;-84
2024/03/05 04:25:08;;;;;;;4.07;1.17;;;6.30;64.60;;;;;;4987330;28;20417;-84
2024/03/05 04:27:55;;;;;;;3.28;1.13;;;6.30;64.60;;;;;;4988759;28;20061;-84
2024/03/05 04:30:41;;;;;;;3.15;1.17;;;6.40;64.80;;;;;;4980379;28;20113;-84
2024/03/05 04:33:28;;;;;;;1.50;1.17;;;6.40;64.80;;;;;;4985556;28;20424;-84
2024/03/05 04:36:14;;;;;;;4.68;1.25;;;6.40;64.80;;;;;;4989220;28;20044;-84
2024/03/05 04:38:58;;;;;;;3.70;1.50;;;6.40;64.80;;;;;;4989293;28;20069;-83
2024/03/05 04:41:46;;;;;;;4.40;1.27;;;6.40;65.30;;;;;;4988893;28;20049;-83
2024/03/05 04:44:31;;;;;;;8.02;1.45;;;6.40;64.80;;;;;;4984284;28;20049;-83
2024/03/05 04:47:15;;;;;;;5.50;1.67;;;6.40;64.80;;;;;;4993053;28;20061;-83
2024/03/05 04:50:01;;;;;;;3.28;1.27;;;6.50;65.00;;;;;;4969742;28;20032;-83
2024/03/05 04:52:45;;;;;;;5.60;1.38;;;6.50;65.00;;;;;;4983837;28;20044;-84
2024/03/05 04:55:31;;;;;;;2.80;1.20;;;6.50;64.90;;;;;;4990325;28;20480;-83
2024/03/05 04:58:15;;;;;;;2.75;1.13;;;6.50;64.90;;;;;;4988711;28;20029;-85
2024/03/05 05:00:59;;;;;;;3.92;1.60;;;6.50;64.90;;;;;;4971704;28;20226;-84
2024/03/05 05:03:44;;;;;;;4.38;1.33;;;6.60;65.10;;;;;;4982142;28;20100;-84
2024/03/05 05:06:28;;;;;;;6.57;1.70;;;6.60;65.10;;;;;;4983550;28;20073;-83
2024/03/05 05:09:15;;;;;;;3.35;1.33;;;6.70;65.20;;;;;;4986211;28;20034;-84
2024/03/05 05:11:59;;;;;;;4.90;2.75;;;6.70;65.20;;;;;;4980687;28;20045;-83
2024/03/05 05:14:44;;;;;;;6.57;1.55;;;6.70;65.20;;;;;;4981255;28;20089;-83
2024/03/05 05:17:28;;;;;;;7.40;1.60;;;6.70;65.20;;;;;;4986650;28;20101;-83
2024/03/05 05:20:15;;;;;;;6.15;1.92;;;6.70;65.10;;;;;;4987306;28;20088;-83
2024/03/05 05:22:59;;;;;;;4.95;1.55;;;6.70;65.70;;;;;;4984976;28;20088;-83
2024/03/05 05:25:44;;;;;;;3.33;1.38;;;6.70;65.20;;;;;;4982832;28;20496;-83
2024/03/05 05:28:28;;;;;;;4.75;1.77;;;6.70;65.10;;;;;;4979017;28;20129;-82
2024/03/05 05:31:27;;;;;;;6.18;1.63;;;6.70;65.10;;;;;;4981052;28;20041;-82
2024/03/05 05:34:12;;;;;;;4.13;1.63;;;6.70;65.10;;;;;;4972146;28;20258;-82
2024/03/05 05:36:57;;;;;;;4.53;1.55;;;6.80;65.30;;;;;;4982404;28;20033;-83
2024/03/05 05:39:41;;;;;;;5.15;1.48;;;6.80;65.30;;;;;;4984421;28;20092;-82
2024/03/05 05:42:26;;;;;;;3.05;1.58;;;6.80;65.30;;;;;;4977742;28;20560;-83
2024/03/05 05:45:11;;;;;;;3.75;1.35;;;6.80;65.30;;;;;;4981631;28;20041;-82
2024/03/05 05:47:56;;;;;;;6.45;1.40;;;6.80;65.30;;;;;;4978544;28;20093;-82
2024/03/05 05:50:42;;;;;;;2.75;1.30;;;6.80;65.30;;;;;;4978148;28;20049;-82
2024/03/05 05:53:27;;;;;;;3.22;1.20;;;6.80;65.20;;;;;;4988022;28;20076;-81
2024/03/05 05:56:14;;;;;;;2.53;1.40;;;6.90;65.40;;;;;;4984151;28;20519;-84
2024/03/05 05:58:58;;;;;;;5.07;1.52;;;6.80;65.20;;;;;;4978235;28;20044;-82
2024/03/05 06:01:43;;;;;;;3.45;1.17;;;6.90;65.40;;;;;;4980475;28;20150;-81
2024/03/05 06:04:27;;;;;;;3.03;1.50;;;6.90;65.40;;;;;;4973813;28;20402;-81
2024/03/05 06:07:12;;;;;;;5.70;1.60;;;6.90;65.30;;;;;;4982583;28;20070;-81
2024/03/05 06:09:56;;;;;;;3.90;1.40;;;6.80;65.10;;;;;;4977822;28;20497;-81
2024/03/05 06:12:41;;;;;;;3.47;1.33;;;6.80;65.10;;;;;;4975263;28;20117;-81
2024/03/05 06:15:28;;;;;;;3.47;1.27;;;6.80;65.10;;;;;;4979564;28;20657;-81
2024/03/05 06:18:12;;;;;;;4.38;1.40;;;6.80;65.10;;;;;;4978612;28;20540;-82
2024/03/05 06:20:57;;;;;;;3.72;1.25;;;6.80;65.10;;;;;;4976090;28;20040;-81
2024/03/05 06:23:42;;;;;;;4.97;2.00;;;6.80;65.10;;;;;;4979651;28;20044;-82
2024/03/05 06:26:27;;;;;;;3.50;1.30;;;6.70;65.00;;;;;;4977484;28;20033;-80
2024/03/05 06:29:12;;;;;;;3.78;1.52;;;6.70;65.00;;;;;;4977077;28;20088;-79
2024/03/05 06:31:56;;;;;;;3.95;1.05;;;6.70;65.00;;;;;;4979711;28;20033;-82
2024/03/05 06:34:42;;;;;;;2.85;1.30;;;6.70;65.00;;;;;;4980104;28;20116;-82
2024/03/05 06:37:27;;;;;;;3.72;1.58;;;6.70;65.00;;;;;;4977732;28;20096;-81
2024/03/05 06:40:13;;;;;;;4.28;1.67;;;6.70;65.00;;;;;;4990003;28;20095;-82
2024/03/05 06:43:12;;;;;;;4.45;1.65;;;6.70;65.00;;;;;;4978602;28;20045;-78
2024/03/05 06:45:57;;;;;;;3.28;1.88;;;6.70;65.00;;;;;;4971566;28;20525;-76
2024/03/05 06:48:47;;;;;;;3.50;1.95;;;6.60;64.80;;;;;;4977131;28;20049;-78
2024/03/05 06:51:41;;;;;;;3.40;1.27;;;6.60;64.80;;;;;;4972141;28;20101;-78
2024/03/05 06:57:29;;;;;;;32.80;8.45;;;6.60;65.00;;;;;;4979435;28;20057;-80
2024/03/05 07:00:17;;;;;;;36.50;8.70;;;6.60;65.10;;;;;;4973383;28;20147;-78
2024/03/05 07:03:04;;;;;;;20.05;5.35;;;6.70;65.50;;;;;;4986857;28;20524;-78
2024/03/05 07:05:49;;;;;;;15.85;4.95;;;6.70;65.70;;;;;;4975185;28;20524;-79
2024/03/05 07:08:34;;;;;;;11.27;3.97;;;6.80;66.00;;;;;;4962877;28;20042;-79
2024/03/05 07:11:19;;;;;;;11.55;3.38;;;6.90;66.30;;;;;;4966082;28;20072;-77
2024/03/05 07:14:07;;;;;;;14.00;4.53;;;7.00;66.60;;;;;;4975477;28;20581;-79
2024/03/05 07:16:53;;;;;;;10.32;3.42;;;7.00;66.60;;;;;;4974175;28;20132;-77
2024/03/05 07:19:37;;;;;;;20.10;3.70;;;7.10;67.00;;;;;;4970822;28;20045;-77
2024/03/05 07:22:21;;;;;;;8.10;3.00;;;7.10;67.20;;;;;;4971014;28;20595;-78
2024/03/05 07:25:08;;;;;;;14.02;4.60;;;7.20;67.50;;;;;;4973322;28;20509;-78
2024/03/05 07:27:53;;;;;;;13.55;4.15;;;7.30;67.80;;;;;;4970672;28;20045;-78
2024/03/05 07:30:37;;;;;;;13.38;4.22;;;7.40;68.00;;;;;;4974814;28;20537;-78
2024/03/05 07:33:22;;;;;;;11.52;3.60;;;7.40;68.10;;;;;;4951703;28;20061;-79
2024/03/05 07:36:07;;;;;;;12.43;5.10;;;7.50;68.40;;;;;;4968614;28;20429;-79
2024/03/05 07:38:52;;;;;;;11.48;3.47;;;7.50;68.50;;;;;;4968821;28;20045;-79
2024/03/05 07:41:39;;;;;;;9.00;5.05;;;7.60;68.80;;;;;;4975625;28;20049;-79
2024/03/05 07:44:24;;;;;;;11.32;4.43;;;7.70;69.10;;;;;;4975914;28;20069;-82
2024/03/05 07:47:08;;;;;;;7.38;3.30;;;7.70;69.20;;;;;;4970802;28;20232;-80
2024/03/05 07:49:53;;;;;;;8.77;3.47;;;7.80;69.40;;;;;;4972176;28;20053;-80
2024/03/05 07:52:44;;;;;;;8.00;3.85;;;7.80;69.50;;;;;;4961751;28;20046;-79
2024/03/05 07:55:28;;;;;;;9.18;3.67;;;7.80;69.50;;;;;;4970521;28;20620;-80
2024/03/05 07:58:13;;;;;;;9.82;3.40;;;7.90;69.70;;;;;;4973875;28;20065;-79
2024/03/05 08:00:58;;;;;;;9.82;3.40;;;8.00;69.90;;;;;;4976566;28;20073;-79
2024/03/05 08:03:42;;;;;;;9.90;4.47;;;8.00;69.80;;;;;;4973692;28;20053;-82
2024/03/05 08:06:27;;;;;;;10.10;3.22;;;8.10;70.00;;;;;;4970876;28;20037;-80
2024/03/05 08:09:12;;;;;;;7.20;2.88;;;8.20;70.10;;;;;;4975425;28;20126;-80
2024/03/05 08:11:56;;;;;;;7.55;2.72;;;8.20;70.00;;;;;;4969960;28;20057;-78
2024/03/05 08:14:40;;;;;;;6.32;3.08;;;8.30;70.10;;;;;;4967044;28;20054;-78
2024/03/05 08:17:25;;;;;;;8.95;3.28;;;8.40;70.30;;;;;;4979726;28;20094;-78
2024/03/05 08:20:12;;;;;;;6.85;2.25;;;8.40;70.20;;;;;;4975896;28;20042;-77
2024/03/05 08:22:57;;;;;;;4.53;1.98;;;8.50;70.30;;;;;;4967536;28;20323;-79
2024/03/05 08:25:41;;;;;;;4.32;2.13;;;8.60;70.40;;;;;;4962743;28;20037;-78
2024/03/05 08:28:26;;;;;;;5.50;2.22;;;8.60;70.30;;;;;;4976617;28;20061;-77
2024/03/05 08:31:10;;;;;;;3.78;1.80;;;8.70;70.40;;;;;;4978428;28;20105;-78
2024/03/05 08:33:55;;;;;;;5.05;1.85;;;8.70;70.40;;;;;;4961535;28;20395;-78
2024/03/05 08:36:41;;;;;;;7.95;2.55;;;8.70;70.30;;;;;;4966835;28;20057;-77
2024/03/05 08:39:26;;;;;;;4.07;2.10;;;8.70;70.30;;;;;;4976499;28;20406;-78
2024/03/05 08:42:11;;;;;;;5.30;2.42;;;8.80;70.50;;;;;;4961940;28;20050;-80
2024/03/05 08:44:56;;;;;;;7.70;2.47;;;8.80;70.40;;;;;;4966433;28;20109;-79
2024/03/05 08:47:44;;;;;;;5.25;2.10;;;8.90;70.50;;;;;;4969736;28;20429;-80
2024/03/05 08:50:29;;;;;;;4.13;2.00;;;8.90;70.50;;;;;;4977243;28;20097;-78
2024/03/05 08:53:14;;;;;;;5.07;1.88;;;9.00;70.60;;;;;;4966358;28;20311;-78
2024/03/05 08:55:58;;;;;;;5.28;2.00;;;9.00;70.50;;;;;;4974778;28;20398;-78
2024/03/05 08:58:43;;;;;;;3.83;1.83;;;9.10;70.60;;;;;;4955441;28;20042;-78
2024/03/05 09:01:28;;;;;;;4.88;2.33;;;9.10;70.50;;;;;;4979184;28;20053;-78
2024/03/05 09:04:12;;;;;;;5.05;1.77;;;9.20;70.50;;;;;;4975606;28;20492;-78
2024/03/05 09:06:56;;;;;;;4.80;1.70;;;9.30;70.60;;;;;;4968117;28;20194;-78
2024/03/05 09:09:41;;;;;;;5.55;1.88;;;9.40;70.70;;;;;;4975347;28;20080;-78
2024/03/05 09:12:28;;;;;;;3.33;1.90;;;9.40;70.50;;;;;;4977525;28;20565;-79
2024/03/05 09:15:15;;;;;;;4.15;1.80;;;9.50;70.50;;;;;;4968627;28;20513;-78
2024/03/05 09:18:01;;;;;;;4.32;2.00;;;9.60;70.60;;;;;;4965679;28;20174;-79
2024/03/05 09:20:45;;;;;;;7.05;2.65;;;9.70;70.60;;;;;;4976934;28;20041;-78
2024/03/05 09:23:30;;;;;;;4.22;1.88;;;9.80;70.60;;;;;;4971207;28;20068;-78
2024/03/05 09:26:15;;;;;;;4.72;2.40;;;9.90;70.60;;;;;;4978243;28;20140;-78
2024/03/05 09:28:59;;;;;;;5.28;2.00;;;10.00;70.60;;;;;;4986228;28;20041;-78
2024/03/05 09:31:44;;;;;;;3.33;1.80;;;10.10;71.10;;;;;;4978512;28;20122;-77
2024/03/05 09:34:29;;;;;;;5.53;1.58;;;10.20;70.60;;;;;;4953201;28;20425;-77
2024/03/05 09:37:13;;;;;;;2.97;1.40;;;10.30;70.60;;;;;;4980810;28;20037;-77
2024/03/05 09:39:58;;;;;;;5.97;1.83;;;10.40;70.60;;;;;;4979112;28;20044;-77
2024/03/05 09:42:43;;;;;;;3.47;1.63;;;10.50;70.60;;;;;;4975032;28;20113;-81
2024/03/05 09:45:30;;;;;;;4.70;1.92;;;10.60;70.50;;;;;;4969867;28;20045;-79
2024/03/05 09:48:18;;;;;;;4.70;1.70;;;10.80;70.70;;;;;;4974965;28;20608;-81
2024/03/05 09:51:06;;;;;;;4.60;1.70;;;10.90;70.70;;;;;;4977795;28;20112;-79
2024/03/05 09:53:52;;;;;;;8.00;1.77;;;10.90;70.50;;;;;;4971124;28;20053;-79
2024/03/05 09:56:41;;;;;;;4.65;1.50;;;11.10;70.70;;;;;;4970018;28;20111;-79
2024/03/05 09:59:25;;;;;;;5.40;1.85;;;11.20;70.70;;;;;;4967273;28;20088;-79
2024/03/05 10:02:13;;;;;;;8.43;1.90;;;11.20;70.60;;;;;;4977788;28;21145;-79
2024/03/05 10:05:01;;;;;;;6.20;1.95;;;11.30;70.60;;;;;;4968550;28;20469;-79
2024/03/05 10:07:47;;;;;;;5.57;1.60;;;11.40;70.60;;;;;;4991572;28;20356;-79
2024/03/05 10:10:37;;;;;;;6.78;1.60;;;11.40;70.50;;;;;;4962559;28;20329;-79
2024/03/05 10:13:21;;;;;;;3.15;1.50;;;11.40;70.40;;;;;;4966259;28;20398;-80
2024/03/05 10:16:13;;;;;;;5.28;1.85;;;11.50;70.50;;;;;;4981232;28;20506;-81
2024/03/05 10:18:58;;;;;;;6.00;1.80;;;11.60;70.50;;;;;;4973713;28;20069;-81
2024/03/05 10:21:44;;;;;;;7.65;2.42;;;11.60;70.40;;;;;;4964771;28;20094;-80
2024/03/05 10:24:31;;;;;;;5.85;1.60;;;11.70;70.50;;;;;;4962016;28;20069;-80
2024/03/05 10:27:27;;;;;;;3.67;1.35;;;11.70;70.40;;;;;;4977736;28;20099;-80
2024/03/05 10:30:20;;;;;;;5.28;1.40;;;11.80;70.40;;;;;;4979077;28;20044;-80
2024/03/05 10:33:07;;;;;;;4.70;1.70;;;11.80;70.40;;;;;;4973116;28;20130;-80
2024/03/05 10:35:51;;;;;;;5.00;1.77;;;11.80;70.30;;;;;;4976266;28;20108;-80
2024/03/05 10:38:37;;;;;;;6.30;2.83;;;11.80;70.30;;;;;;4989778;28;20086;-80
2024/03/05 10:41:40;;;;;;;8.82;1.80;;;11.80;70.20;;;;;;4974690;28;20085;-80
2024/03/05 10:44:25;;;;;;;6.38;1.70;;;11.80;70.10;;;;;;4974341;28;20038;-81
2024/03/05 10:47:11;;;;;;;4.45;1.58;;;11.80;70.10;;;;;;4960026;28;20525;-81
2024/03/05 10:49:57;;;;;;;7.10;1.60;;;11.80;70.10;;;;;;4988056;28;20194;-82
2024/03/05 10:52:42;;;;;;;6.05;1.45;;;11.80;70.10;;;;;;4968020;28;20073;-78
2024/03/05 10:55:26;;;;;;;3.55;1.58;;;11.80;70.10;;;;;;4962646;28;20057;-80
2024/03/05 11:00:57;;;;;;;5.10;2.33;;;11.80;70.00;;;;;;4962174;28;20049;-79
2024/03/05 11:03:44;;;;;;;3.80;1.30;;;11.80;69.90;;;;;;4976923;28;20061;-79
2024/03/05 11:06:28;;;;;;;6.40;1.90;;;11.80;69.90;;;;;;4967169;28;20521;-78
2024/03/05 11:09:19;;;;;;;4.65;1.42;;;11.90;70.00;;;;;;4966149;28;20049;-78
2024/03/05 11:12:06;;;;;;;3.30;1.15;;;11.90;70.00;;;;;;4976827;28;20049;-80
2024/03/05 11:14:51;;;;;;;4.53;1.30;;;11.90;69.90;;;;;;4967119;28;20080;-79
2024/03/05 11:17:35;;;;;;;6.28;1.58;;;11.90;69.80;;;;;;4962534;28;20527;-79
2024/03/05 11:20:45;;;;;;;4.82;1.55;;;12.00;69.90;;;;;;4969762;28;20096;-79
2024/03/05 11:23:32;;;;;;;6.40;1.90;;;12.00;70.30;;;;;;4965851;28;20050;-80
2024/03/05 11:26:19;;;;;;;6.47;1.50;;;12.10;69.90;;;;;;4984929;28;20046;-80
2024/03/05 11:29:14;;;;;;;5.05;1.67;;;12.10;69.80;;;;;;4966353;28;20040;-80
2024/03/05 11:32:00;;;;;;;6.93;1.90;;;12.10;69.70;;;;;;4976871;28;20195;-80
2024/03/05 11:34:48;;;;;;;4.60;1.80;;;12.10;69.60;;;;;;4968576;28;20053;-80
2024/03/05 11:37:52;;;;;;;6.32;2.50;;;12.20;69.70;;;;;;4977554;28;20572;-80
2024/03/05 11:40:37;;;;;;;7.35;1.85;;;12.20;69.60;;;;;;4991990;28;20101;-80
2024/03/05 11:43:34;;;;;;;7.38;1.77;;;12.30;69.70;;;;;;4975409;28;20045;-80
2024/03/05 11:46:41;;;;;;;6.50;1.70;;;12.30;69.60;;;;;;4970310;28;20049;-80
2024/03/05 11:49:25;;;;;;;4.20;1.70;;;12.30;69.50;;;;;;4991261;28;20128;-81
2024/03/05 11:52:10;;;;;;;9.18;2.22;;;12.30;69.40;;;;;;4967156;28;20434;-81
2024/03/05 11:55:00;;;;;;;11.65;3.78;;;12.40;69.50;;;;;;4974264;28;20061;-81
2024/03/05 11:57:56;;;;;;;8.32;2.85;;;12.40;69.90;;;;;;4973277;28;20382;-79
2024/03/05 12:00:40;;;;;;;14.20;3.15;;;12.50;69.40;;;;;;4963819;28;20061;-78
2024/03/05 12:03:27;;;;;;;12.80;3.83;;;12.50;69.30;;;;;;4982247;28;20153;-79
2024/03/05 12:06:18;;;;;;;9.75;3.30;;;12.60;69.40;;;;;;4969849;28;20041;-77
2024/03/05 12:09:18;;;;;;;9.13;2.65;;;12.70;69.40;;;;;;4969672;28;20053;-78
2024/03/05 12:12:09;;;;;;;10.10;2.90;;;12.70;69.20;;;;;;4976895;28;20049;-78
2024/03/05 12:14:55;;;;;;;9.88;3.08;;;12.80;69.20;;;;;;4966501;28;20141;-78
2024/03/05 12:17:40;;;;;;;9.88;3.20;;;12.90;69.50;;;;;;4974055;28;20182;-78
2024/03/05 12:20:25;;;;;;;10.45;2.92;;;13.00;69.30;;;;;;4969227;28;20050;-78
2024/03/05 12:23:10;;;;;;;11.00;2.70;;;13.00;69.10;;;;;;4970691;28;20041;-80
2024/03/05 12:25:55;;;;;;;10.00;3.53;;;13.00;69.00;;;;;;4970047;28;20542;-78
2024/03/05 12:28:40;;;;;;;11.70;3.33;;;13.10;69.10;;;;;;4975888;28;20041;-78
2024/03/05 12:31:24;;;;;;;7.78;3.53;;;13.10;69.00;;;;;;4982019;28;20053;-78
2024/03/05 12:34:10;;;;;;;7.00;2.95;;;13.10;68.90;;;;;;4971723;28;20057;-78
2024/03/05 12:36:54;;;;;;;8.07;3.33;;;13.20;68.90;;;;;;4981489;28;20073;-78
2024/03/05 12:39:40;;;;;;;6.45;2.67;;;13.20;68.90;;;;;;4985363;28;20092;-78
2024/03/05 12:42:24;;;;;;;8.73;2.80;;;13.30;68.90;;;;;;4979519;28;20057;-78
2024/03/05 12:45:09;;;;;;;9.10;2.72;;;13.30;68.80;;;;;;4990647;28;20045;-78
2024/03/05 12:47:58;;;;;;;16.50;3.10;;;13.30;68.60;;;;;;4979998;28;20076;-78
2024/03/05 12:50:42;;;;;;;7.68;2.58;;;13.40;68.70;;;;;;4974038;28;20042;-78
2024/03/05 12:53:26;;;;;;;10.05;3.90;;;13.40;68.50;;;;;;4970145;28;20068;-78
2024/03/05 12:56:12;;;;;;;6.88;2.17;;;13.40;68.40;;;;;;4972940;28;20058;-80
2024/03/05 12:58:57;;;;;;;8.02;1.92;;;13.40;68.30;;;;;;4975093;28;20050;-80
2024/03/05 13:01:41;;;;;;;8.18;2.67;;;13.50;68.30;;;;;;4978633;28;20178;-80
2024/03/05 13:04:26;;;;;;;7.55;2.28;;;13.50;68.20;;;;;;4980097;28;20073;-80
2024/03/05 13:07:11;;;;;;;9.13;2.28;;;13.60;68.40;;;;;;4969816;28;20073;-80
2024/03/05 13:09:57;;;;;;;10.85;2.83;;;13.60;68.10;;;;;;4975628;28;20123;-80
2024/03/05 13:12:42;;;;;;;6.85;2.13;;;13.70;68.20;;;;;;4979601;28;20397;-79
2024/03/05 13:15:26;;;;;;;5.97;2.35;;;13.80;68.20;;;;;;4975560;28;20465;-80
2024/03/05 13:18:11;;;;;;;7.47;1.92;;;13.90;68.10;;;;;;4975827;28;20468;-79
2024/03/05 13:20:55;;;;;;;6.93;2.10;;;13.90;67.90;;;;;;4978576;28;20085;-80
2024/03/05 13:23:40;;;;;;;7.75;2.47;;;14.00;67.90;;;;;;4971479;28;20084;-80
2024/03/05 13:26:24;;;;;;;5.10;1.95;;;14.10;67.90;;;;;;4977764;28;20137;-80
2024/03/05 13:29:10;;;;;;;5.28;1.65;;;14.20;67.90;;;;;;4976327;28;20092;-80
2024/03/05 13:31:55;;;;;;;3.25;1.40;;;14.40;68.10;;;;;;4975269;28;20411;-80
2024/03/05 13:34:39;;;;;;;4.82;1.70;;;14.60;68.10;;;;;;4967950;28;20058;-79
2024/03/05 13:37:23;;;;;;;10.27;1.90;;;14.90;68.10;;;;;;4976282;28;20595;-79
2024/03/05 13:40:11;;;;;;;6.20;2.05;;;15.10;67.90;;;;;;4977694;28;20579;-77
2024/03/05 13:42:55;;;;;;;6.32;2.20;;;15.40;67.70;;;;;;4975639;28;20097;-78
2024/03/05 13:45:40;;;;;;;5.25;1.73;;;15.60;67.50;;;;;;4992509;28;20057;-80
2024/03/05 13:48:25;;;;;;;4.80;1.92;;;15.90;67.40;;;;;;4960403;28;20106;-79
2024/03/05 13:51:09;;;;;;;4.47;2.22;;;16.10;67.20;;;;;;4974653;28;20081;-81
2024/03/05 13:53:55;;;;;;;4.20;1.30;;;16.30;67.00;;;;;;4974462;28;20061;-80
2024/03/05 13:56:42;;;;;;;5.32;1.92;;;16.50;66.80;;;;;;4967563;28;20521;-81
2024/03/05 13:59:27;;;;;;;3.67;1.38;;;16.70;66.70;;;;;;4970719;28;20513;-81
2024/03/05 14:02:13;;;;;;;6.10;2.50;;;16.90;66.60;;;;;;4973460;28;20129;-80
2024/03/05 14:05:01;;;;;;;8.52;2.95;;;17.20;66.70;;;;;;4963411;28;20104;-80
2024/03/05 14:07:46;;;;;;;7.00;2.20;;;17.30;66.40;;;;;;4965334;28;20093;-80
2024/03/05 14:10:30;;;;;;;7.53;2.40;;;17.60;66.50;;;;;;4974639;28;20141;-80
2024/03/05 14:13:17;;;;;;;6.03;1.60;;;17.80;66.20;;;;;;4963084;28;20041;-80
2024/03/05 14:16:06;;;;;;;5.45;1.73;;;17.90;65.80;;;;;;4966743;28;20057;-79
2024/03/05 14:18:52;;;;;;;6.65;1.58;;;18.10;65.70;;;;;;4968092;28;20149;-79
2024/03/05 14:21:37;;;;;;;6.88;1.70;;;18.20;65.30;;;;;;4978973;28;20097;-80
2024/03/05 14:24:24;;;;;;;4.78;1.70;;;18.40;65.00;;;;;;4961409;28;20049;-80
2024/03/05 14:27:12;;;;;;;5.15;1.85;;;18.50;64.70;;;;;;4976896;28;20041;-80
2024/03/05 14:29:56;;;;;;;4.97;1.40;;;18.60;64.40;;;;;;4954112;28;20120;-80
2024/03/05 14:32:42;;;;;;;5.80;1.80;;;18.70;64.10;;;;;;4972695;28;20102;-80
2024/03/05 14:35:28;;;;;;;4.40;1.75;;;18.80;63.80;;;;;;4978802;28;20512;-81